sensor_id;sensor_type;location;lat;lon;timestamp;temperature;humidity
16243;DHT22;11719;51.052;6.982;2024-03-17T00:02:22;14.50;99.90
16243;DHT22;11719;51.052;6.982;2024-03-17T00:04:48;14.30;99.90
16243;DHT22;11719;51.052;6.982;2024-03-17T00:07:14;14.30;99.90
16243;DHT22;11719;51.052;6.982;2024-03-17T00:09:41;14.30;99.90
16243;DHT22;11719;51.052;6.982;2024-03-17T00:12:07;14.30;99.90
16243;DHT22;11719;51.052;6.982;2024-03-17T00:14:46;14.40;99.90
16243;DHT22;11719;51.052;6.982;2024-03-17T00:17:12;14.30;99.90
16243;DHT22;11719;51.052;6.982;2024-03-17T00:19:37;14.40;99.90
16243;DHT22;11719;51.052;6.982;2024-03-17T00:22:09;14.50;99.90
16243;DHT22;11719;51.052;6.982;2024-03-17T00:24:39;14.60;99.90
16243;DHT22;11719;51.052;6.982;2024-03-17T00:27:06;14.70;99.90
16243;DHT22;11719;51.052;6.982;2024-03-17T00:29:32;14.80;99.90
16243;DHT22;11719;51.052;6.982;2024-03-17T00:31:58;14.90;99.90
16243;DHT22;11719;51.052;6.982;2024-03-17T00:34:24;14.80;99.90
16243;DHT22;11719;51.052;6.982;2024-03-17T00:36:53;14.80;99.90
16243;DHT22;11719;51.052;6.982;2024-03-17T00:39:19;14.80;99.90
16243;DHT22;11719;51.052;6.982;2024-03-17T00:41:48;14.70;99.90
16243;DHT22;11719;51.052;6.982;2024-03-17T00:44:17;14.70;99.90
16243;DHT22;11719;51.052;6.982;2024-03-17T00:46:42;14.40;99.90
16243;DHT22;11719;51.052;6.982;2024-03-17T00:49:12;14.40;99.90
16243;DHT22;11719;51.052;6.982;2024-03-17T00:51:38;14.40;99.90
16243;DHT22;11719;51.052;6.982;2024-03-17T00:54:03;14.40;99.90
16243;DHT22;11719;51.052;6.982;2024-03-17T00:56:35;14.50;99.90
16243;DHT22;11719;51.052;6.982;2024-03-17T00:59:01;14.60;99.90
16243;DHT22;11719;51.052;6.982;2024-03-17T01:01:27;14.60;99.90
16243;DHT22;11719;51.052;6.982;2024-03-17T01:03:52;14.60;99.90
16243;DHT22;11719;51.052;6.982;2024-03-17T01:06:18;14.60;99.90
16243;DHT22;11719;51.052;6.982;2024-03-17T01:08:44;14.50;99.90
16243;DHT22;11719;51.052;6.982;2024-03-17T01:11:17;14.50;99.90
16243;DHT22;11719;51.052;6.982;2024-03-17T01:13:45;14.50;99.90
16243;DHT22;11719;51.052;6.982;2024-03-17T01:16:12;14.60;99.90
16243;DHT22;11719;51.052;6.982;2024-03-17T01:18:38;14.40;99.90
16243;DHT22;11719;51.052;6.982;2024-03-17T01:21:05;14.30;99.90
16243;DHT22;11719;51.052;6.982;2024-03-17T01:23:32;14.10;99.90
16243;DHT22;11719;51.052;6.982;2024-03-17T01:25:58;14.00;99.90
16243;DHT22;11719;51.052;6.982;2024-03-17T01:28:24;13.80;99.90
16243;DHT22;11719;51.052;6.982;2024-03-17T01:30:49;13.70;99.90
16243;DHT22;11719;51.052;6.982;2024-03-17T01:33:15;13.60;99.90
16243;DHT22;11719;51.052;6.982;2024-03-17T01:35:43;13.50;99.90
16243;DHT22;11719;51.052;6.982;2024-03-17T01:38:11;13.40;99.90
16243;DHT22;11719;51.052;6.982;2024-03-17T01:40:40;13.40;99.90
16243;DHT22;11719;51.052;6.982;2024-03-17T01:43:10;13.60;99.90
16243;DHT22;11719;51.052;6.982;2024-03-17T01:45:39;13.70;99.90
16243;DHT22;11719;51.052;6.982;2024-03-17T01:48:15;13.70;99.90
16243;DHT22;11719;51.052;6.982;2024-03-17T01:50:44;13.70;99.90
16243;DHT22;11719;51.052;6.982;2024-03-17T01:53:12;13.70;99.90
16243;DHT22;11719;51.052;6.982;2024-03-17T01:55:42;13.70;99.90
16243;DHT22;11719;51.052;6.982;2024-03-17T01:58:11;13.50;99.90
16243;DHT22;11719;51.052;6.982;2024-03-17T02:00:40;13.40;99.90
16243;DHT22;11719;51.052;6.982;2024-03-17T02:03:07;13.40;99.90
16243;DHT22;11719;51.052;6.982;2024-03-17T02:05:36;13.60;99.90
16243;DHT22;11719;51.052;6.982;2024-03-17T02:08:04;13.60;99.90
16243;DHT22;11719;51.052;6.982;2024-03-17T02:10:30;13.60;99.90
16243;DHT22;11719;51.052;6.982;2024-03-17T02:12:56;13.70;99.90
16243;DHT22;11719;51.052;6.982;2024-03-17T02:15:22;13.70;99.90
16243;DHT22;11719;51.052;6.982;2024-03-17T02:17:47;13.70;99.90
16243;DHT22;11719;51.052;6.982;2024-03-17T02:20:14;13.60;99.90
16243;DHT22;11719;51.052;6.982;2024-03-17T02:22:43;13.50;99.90
16243;DHT22;11719;51.052;6.982;2024-03-17T02:25:09;13.50;99.90
16243;DHT22;11719;51.052;6.982;2024-03-17T02:27:35;13.40;99.90
16243;DHT22;11719;51.052;6.982;2024-03-17T02:30:03;13.30;99.90
16243;DHT22;11719;51.052;6.982;2024-03-17T02:32:38;13.30;99.90
16243;DHT22;11719;51.052;6.982;2024-03-17T02:35:07;13.30;99.90
16243;DHT22;11719;51.052;6.982;2024-03-17T02:37:33;13.20;99.90
16243;DHT22;11719;51.052;6.982;2024-03-17T02:39:58;13.20;99.90
16243;DHT22;11719;51.052;6.982;2024-03-17T02:42:24;13.30;99.90
16243;DHT22;11719;51.052;6.982;2024-03-17T02:44:52;13.30;99.90
16243;DHT22;11719;51.052;6.982;2024-03-17T02:47:18;13.40;99.90
16243;DHT22;11719;51.052;6.982;2024-03-17T02:49:44;13.40;99.90
16243;DHT22;11719;51.052;6.982;2024-03-17T02:52:10;13.30;99.90
16243;DHT22;11719;51.052;6.982;2024-03-17T02:54:37;13.30;99.90
16243;DHT22;11719;51.052;6.982;2024-03-17T02:57:05;13.30;99.90
16243;DHT22;11719;51.052;6.982;2024-03-17T02:59:32;13.30;99.90
16243;DHT22;11719;51.052;6.982;2024-03-17T03:01:59;13.30;99.90
16243;DHT22;11719;51.052;6.982;2024-03-17T03:04:25;13.20;99.90
16243;DHT22;11719;51.052;6.982;2024-03-17T03:06:52;13.10;99.90
16243;DHT22;11719;51.052;6.982;2024-03-17T03:09:18;13.00;99.90
16243;DHT22;11719;51.052;6.982;2024-03-17T03:11:59;13.00;99.90
16243;DHT22;11719;51.052;6.982;2024-03-17T03:14:26;12.90;99.90
16243;DHT22;11719;51.052;6.982;2024-03-17T03:16:51;12.90;99.90
16243;DHT22;11719;51.052;6.982;2024-03-17T03:19:18;12.90;99.90
16243;DHT22;11719;51.052;6.982;2024-03-17T03:21:47;13.00;99.90
16243;DHT22;11719;51.052;6.982;2024-03-17T03:24:16;13.10;99.90
16243;DHT22;11719;51.052;6.982;2024-03-17T03:26:42;13.10;99.90
16243;DHT22;11719;51.052;6.982;2024-03-17T03:29:09;13.10;99.90
16243;DHT22;11719;51.052;6.982;2024-03-17T03:31:39;13.10;99.90
16243;DHT22;11719;51.052;6.982;2024-03-17T03:34:08;13.20;99.90
16243;DHT22;11719;51.052;6.982;2024-03-17T03:36:34;13.10;99.90
16243;DHT22;11719;51.052;6.982;2024-03-17T03:39:03;13.10;99.90
16243;DHT22;11719;51.052;6.982;2024-03-17T03:41:35;13.00;99.90
16243;DHT22;11719;51.052;6.982;2024-03-17T03:44:01;13.00;99.90
16243;DHT22;11719;51.052;6.982;2024-03-17T03:46:26;12.90;99.90
16243;DHT22;11719;51.052;6.982;2024-03-17T03:48:52;12.90;99.90
16243;DHT22;11719;51.052;6.982;2024-03-17T03:51:18;12.70;99.90
16243;DHT22;11719;51.052;6.982;2024-03-17T03:53:44;12.50;99.90
16243;DHT22;11719;51.052;6.982;2024-03-17T03:56:10;12.40;99.90
16243;DHT22;11719;51.052;6.982;2024-03-17T03:58:37;12.30;99.90
16243;DHT22;11719;51.052;6.982;2024-03-17T04:01:08;12.20;99.90
16243;DHT22;11719;51.052;6.982;2024-03-17T04:03:37;12.30;99.90
16243;DHT22;11719;51.052;6.982;2024-03-17T04:06:10;12.30;99.90
16243;DHT22;11719;51.052;6.982;2024-03-17T04:08:37;12.50;99.90
16243;DHT22;11719;51.052;6.982;2024-03-17T04:11:06;12.50;99.90
16243;DHT22;11719;51.052;6.982;2024-03-17T04:13:33;12.60;99.90
16243;DHT22;11719;51.052;6.982;2024-03-17T04:16:00;12.60;99.90
16243;DHT22;11719;51.052;6.982;2024-03-17T04:18:27;12.60;99.90
16243;DHT22;11719;51.052;6.982;2024-03-17T04:20:56;12.80;99.90
16243;DHT22;11719;51.052;6.982;2024-03-17T04:23:23;13.00;99.90
16243;DHT22;11719;51.052;6.982;2024-03-17T04:25:51;13.00;99.90
16243;DHT22;11719;51.052;6.982;2024-03-17T04:28:18;13.00;99.90
16243;DHT22;11719;51.052;6.982;2024-03-17T04:30:47;13.10;99.90
16243;DHT22;11719;51.052;6.982;2024-03-17T04:33:13;13.00;99.90
16243;DHT22;11719;51.052;6.982;2024-03-17T04:35:40;13.00;99.90
16243;DHT22;11719;51.052;6.982;2024-03-17T04:38:06;13.00;99.90
16243;DHT22;11719;51.052;6.982;2024-03-17T04:40:33;12.90;99.90
16243;DHT22;11719;51.052;6.982;2024-03-17T04:42:59;12.60;99.90
16243;DHT22;11719;51.052;6.982;2024-03-17T04:45:25;12.70;99.90
16243;DHT22;11719;51.052;6.982;2024-03-17T04:47:52;12.90;99.90
16243;DHT22;11719;51.052;6.982;2024-03-17T04:50:20;13.20;99.90
16243;DHT22;11719;51.052;6.982;2024-03-17T04:52:46;13.40;99.90
16243;DHT22;11719;51.052;6.982;2024-03-17T04:55:16;13.70;99.90
16243;DHT22;11719;51.052;6.982;2024-03-17T04:57:43;13.80;99.90
16243;DHT22;11719;51.052;6.982;2024-03-17T05:00:10;13.90;99.90
16243;DHT22;11719;51.052;6.982;2024-03-17T05:02:38;14.10;99.90
16243;DHT22;11719;51.052;6.982;2024-03-17T05:05:07;14.30;99.90
16243;DHT22;11719;51.052;6.982;2024-03-17T05:07:36;14.20;99.90
16243;DHT22;11719;51.052;6.982;2024-03-17T05:10:03;14.20;99.90
16243;DHT22;11719;51.052;6.982;2024-03-17T05:12:29;14.30;99.90
16243;DHT22;11719;51.052;6.982;2024-03-17T05:14:55;14.20;99.90
16243;DHT22;11719;51.052;6.982;2024-03-17T05:17:21;14.30;99.90
16243;DHT22;11719;51.052;6.982;2024-03-17T05:19:46;14.40;99.90
16243;DHT22;11719;51.052;6.982;2024-03-17T05:22:15;14.50;99.90
16243;DHT22;11719;51.052;6.982;2024-03-17T05:24:41;14.50;99.90
16243;DHT22;11719;51.052;6.982;2024-03-17T05:27:06;14.60;99.90
16243;DHT22;11719;51.052;6.982;2024-03-17T05:29:32;14.70;99.90
16243;DHT22;11719;51.052;6.982;2024-03-17T05:31:58;14.80;99.90
16243;DHT22;11719;51.052;6.982;2024-03-17T05:34:24;14.90;99.90
16243;DHT22;11719;51.052;6.982;2024-03-17T05:36:52;15.00;99.90
16243;DHT22;11719;51.052;6.982;2024-03-17T05:39:18;15.10;99.90
16243;DHT22;11719;51.052;6.982;2024-03-17T05:41:45;15.10;99.90
16243;DHT22;11719;51.052;6.982;2024-03-17T05:44:14;14.90;99.90
16243;DHT22;11719;51.052;6.982;2024-03-17T05:46:40;14.70;99.90
16243;DHT22;11719;51.052;6.982;2024-03-17T05:49:07;14.50;99.90
16243;DHT22;11719;51.052;6.982;2024-03-17T05:51:33;14.40;99.90
16243;DHT22;11719;51.052;6.982;2024-03-17T05:53:59;14.40;99.90
16243;DHT22;11719;51.052;6.982;2024-03-17T05:56:24;14.70;99.90
16243;DHT22;11719;51.052;6.982;2024-03-17T05:58:50;14.80;99.90
16243;DHT22;11719;51.052;6.982;2024-03-17T06:01:16;14.90;99.90
16243;DHT22;11719;51.052;6.982;2024-03-17T06:03:44;14.90;99.90
16243;DHT22;11719;51.052;6.982;2024-03-17T06:06:10;14.80;99.90
16243;DHT22;11719;51.052;6.982;2024-03-17T06:08:37;14.80;99.90
16243;DHT22;11719;51.052;6.982;2024-03-17T06:11:03;14.60;99.90
16243;DHT22;11719;51.052;6.982;2024-03-17T06:13:32;14.50;99.90
16243;DHT22;11719;51.052;6.982;2024-03-17T06:15:57;14.20;99.90
16243;DHT22;11719;51.052;6.982;2024-03-17T06:18:27;14.00;99.90
16243;DHT22;11719;51.052;6.982;2024-03-17T06:20:54;13.50;99.90
16243;DHT22;11719;51.052;6.982;2024-03-17T06:23:23;13.50;99.90
16243;DHT22;11719;51.052;6.982;2024-03-17T06:25:49;13.50;99.90
16243;DHT22;11719;51.052;6.982;2024-03-17T06:28:16;13.50;99.90
16243;DHT22;11719;51.052;6.982;2024-03-17T06:30:47;13.40;99.90
16243;DHT22;11719;51.052;6.982;2024-03-17T06:33:23;13.20;99.90
16243;DHT22;11719;51.052;6.982;2024-03-17T06:35:50;13.10;99.90
16243;DHT22;11719;51.052;6.982;2024-03-17T06:38:18;13.20;99.90
16243;DHT22;11719;51.052;6.982;2024-03-17T06:40:55;13.20;99.90
16243;DHT22;11719;51.052;6.982;2024-03-17T06:43:21;13.00;99.90
16243;DHT22;11719;51.052;6.982;2024-03-17T06:45:58;12.90;99.90
16243;DHT22;11719;51.052;6.982;2024-03-17T06:48:28;12.90;99.90
16243;DHT22;11719;51.052;6.982;2024-03-17T06:50:55;13.00;99.90
16243;DHT22;11719;51.052;6.982;2024-03-17T06:53:21;13.10;99.90
16243;DHT22;11719;51.052;6.982;2024-03-17T06:55:58;13.10;99.90
16243;DHT22;11719;51.052;6.982;2024-03-17T06:58:26;12.90;99.90
16243;DHT22;11719;51.052;6.982;2024-03-17T07:00:57;12.70;99.90
16243;DHT22;11719;51.052;6.982;2024-03-17T07:03:25;13.00;99.90
16243;DHT22;11719;51.052;6.982;2024-03-17T07:05:53;13.10;99.90
16243;DHT22;11719;51.052;6.982;2024-03-17T07:08:30;13.30;99.90
16243;DHT22;11719;51.052;6.982;2024-03-17T07:11:02;13.20;99.90
16243;DHT22;11719;51.052;6.982;2024-03-17T07:13:40;13.10;99.90
16243;DHT22;11719;51.052;6.982;2024-03-17T07:16:07;12.90;99.90
16243;DHT22;11719;51.052;6.982;2024-03-17T07:18:34;12.90;99.90
16243;DHT22;11719;51.052;6.982;2024-03-17T07:21:01;12.90;99.90
16243;DHT22;11719;51.052;6.982;2024-03-17T07:23:29;12.70;99.90
16243;DHT22;11719;51.052;6.982;2024-03-17T07:25:59;12.60;99.90
16243;DHT22;11719;51.052;6.982;2024-03-17T07:28:25;12.50;99.90
16243;DHT22;11719;51.052;6.982;2024-03-17T07:31:00;12.50;99.90
16243;DHT22;11719;51.052;6.982;2024-03-17T07:33:27;12.40;99.90
16243;DHT22;11719;51.052;6.982;2024-03-17T07:35:54;12.40;99.90
16243;DHT22;11719;51.052;6.982;2024-03-17T07:38:26;12.40;99.90
16243;DHT22;11719;51.052;6.982;2024-03-17T07:40:59;12.30;99.90
16243;DHT22;11719;51.052;6.982;2024-03-17T07:43:27;12.30;99.90
16243;DHT22;11719;51.052;6.982;2024-03-17T07:46:07;12.50;99.90
16243;DHT22;11719;51.052;6.982;2024-03-17T07:48:42;12.50;99.90
16243;DHT22;11719;51.052;6.982;2024-03-17T07:51:11;12.40;99.90
16243;DHT22;11719;51.052;6.982;2024-03-17T07:53:39;12.50;99.90
16243;DHT22;11719;51.052;6.982;2024-03-17T07:58:41;12.60;99.90
16243;DHT22;11719;51.052;6.982;2024-03-17T08:03:48;12.90;99.90
16243;DHT22;11719;51.052;6.982;2024-03-17T08:06:19;12.70;99.90
16243;DHT22;11719;51.052;6.982;2024-03-17T08:08:46;12.50;99.90
16243;DHT22;11719;51.052;6.982;2024-03-17T08:11:11;12.50;99.90
16243;DHT22;11719;51.052;6.982;2024-03-17T08:13:38;12.60;99.90
16243;DHT22;11719;51.052;6.982;2024-03-17T08:16:06;12.90;99.90
16243;DHT22;11719;51.052;6.982;2024-03-17T08:18:34;13.40;99.90
16243;DHT22;11719;51.052;6.982;2024-03-17T08:21:01;13.50;99.90
16243;DHT22;11719;51.052;6.982;2024-03-17T08:23:29;13.70;99.90
16243;DHT22;11719;51.052;6.982;2024-03-17T08:25:59;13.70;99.90
16243;DHT22;11719;51.052;6.982;2024-03-17T08:28:27;14.00;99.90
16243;DHT22;11719;51.052;6.982;2024-03-17T08:30:54;13.90;99.90
16243;DHT22;11719;51.052;6.982;2024-03-17T08:33:25;14.40;99.90
16243;DHT22;11719;51.052;6.982;2024-03-17T08:38:20;14.60;99.90
16243;DHT22;11719;51.052;6.982;2024-03-17T08:40:49;14.50;99.90
16243;DHT22;11719;51.052;6.982;2024-03-17T08:43:15;14.50;99.90
16243;DHT22;11719;51.052;6.982;2024-03-17T08:45:45;14.60;99.90
16243;DHT22;11719;51.052;6.982;2024-03-17T08:48:22;15.00;99.90
16243;DHT22;11719;51.052;6.982;2024-03-17T08:50:52;15.00;99.90
16243;DHT22;11719;51.052;6.982;2024-03-17T08:53:21;15.10;99.90
16243;DHT22;11719;51.052;6.982;2024-03-17T08:55:48;15.40;99.90
16243;DHT22;11719;51.052;6.982;2024-03-17T08:58:14;15.60;99.90
16243;DHT22;11719;51.052;6.982;2024-03-17T09:00:40;15.70;99.90
16243;DHT22;11719;51.052;6.982;2024-03-17T09:03:10;15.80;99.90
16243;DHT22;11719;51.052;6.982;2024-03-17T09:05:37;15.90;99.90
16243;DHT22;11719;51.052;6.982;2024-03-17T09:08:04;16.10;99.90
16243;DHT22;11719;51.052;6.982;2024-03-17T09:10:30;16.10;99.90
16243;DHT22;11719;51.052;6.982;2024-03-17T09:12:56;15.80;99.90
16243;DHT22;11719;51.052;6.982;2024-03-17T09:15:28;15.90;99.90
16243;DHT22;11719;51.052;6.982;2024-03-17T09:17:56;15.90;99.90
16243;DHT22;11719;51.052;6.982;2024-03-17T09:20:22;15.80;99.90
16243;DHT22;11719;51.052;6.982;2024-03-17T09:22:48;15.60;99.90
16243;DHT22;11719;51.052;6.982;2024-03-17T09:25:14;15.40;99.90
16243;DHT22;11719;51.052;6.982;2024-03-17T09:27:45;15.20;99.90
16243;DHT22;11719;51.052;6.982;2024-03-17T09:30:11;15.10;99.90
16243;DHT22;11719;51.052;6.982;2024-03-17T09:32:40;15.00;99.90
16243;DHT22;11719;51.052;6.982;2024-03-17T09:35:09;14.80;99.90
16243;DHT22;11719;51.052;6.982;2024-03-17T09:37:38;14.60;99.90
16243;DHT22;11719;51.052;6.982;2024-03-17T09:40:04;14.50;99.90
16243;DHT22;11719;51.052;6.982;2024-03-17T09:42:31;14.70;99.90
16243;DHT22;11719;51.052;6.982;2024-03-17T09:44:58;14.70;99.90
16243;DHT22;11719;51.052;6.982;2024-03-17T09:47:24;15.20;99.90
16243;DHT22;11719;51.052;6.982;2024-03-17T09:49:52;15.50;99.90
16243;DHT22;11719;51.052;6.982;2024-03-17T09:52:23;15.70;99.90
16243;DHT22;11719;51.052;6.982;2024-03-17T09:55:01;15.80;99.90
16243;DHT22;11719;51.052;6.982;2024-03-17T09:57:36;15.90;99.90
16243;DHT22;11719;51.052;6.982;2024-03-17T10:00:09;16.00;99.90
16243;DHT22;11719;51.052;6.982;2024-03-17T10:02:45;16.00;99.90
16243;DHT22;11719;51.052;6.982;2024-03-17T10:05:30;16.00;99.90
16243;DHT22;11719;51.052;6.982;2024-03-17T10:07:56;16.10;99.90
16243;DHT22;11719;51.052;6.982;2024-03-17T10:10:25;16.00;99.90
16243;DHT22;11719;51.052;6.982;2024-03-17T10:12:51;16.00;99.90
16243;DHT22;11719;51.052;6.982;2024-03-17T10:15:24;15.80;99.90
16243;DHT22;11719;51.052;6.982;2024-03-17T10:17:49;15.70;99.90
16243;DHT22;11719;51.052;6.982;2024-03-17T10:20:16;15.80;99.90
16243;DHT22;11719;51.052;6.982;2024-03-17T10:23:03;15.70;99.90
16243;DHT22;11719;51.052;6.982;2024-03-17T10:25:34;15.60;99.90
16243;DHT22;11719;51.052;6.982;2024-03-17T10:28:01;15.50;99.90
16243;DHT22;11719;51.052;6.982;2024-03-17T10:30:27;15.40;99.90
16243;DHT22;11719;51.052;6.982;2024-03-17T10:32:57;15.50;99.90
16243;DHT22;11719;51.052;6.982;2024-03-17T10:35:34;15.70;99.90
16243;DHT22;11719;51.052;6.982;2024-03-17T10:38:05;15.90;99.90
16243;DHT22;11719;51.052;6.982;2024-03-17T10:40:35;16.00;99.90
16243;DHT22;11719;51.052;6.982;2024-03-17T10:43:05;16.10;99.90
16243;DHT22;11719;51.052;6.982;2024-03-17T10:45:33;16.20;99.90
16243;DHT22;11719;51.052;6.982;2024-03-17T10:48:07;16.20;99.90
16243;DHT22;11719;51.052;6.982;2024-03-17T10:50:38;16.20;99.90
16243;DHT22;11719;51.052;6.982;2024-03-17T10:53:06;16.20;99.90
16243;DHT22;11719;51.052;6.982;2024-03-17T10:55:45;16.20;99.90
16243;DHT22;11719;51.052;6.982;2024-03-17T10:58:24;16.20;99.90
16243;DHT22;11719;51.052;6.982;2024-03-17T11:00:58;16.40;99.90
16243;DHT22;11719;51.052;6.982;2024-03-17T11:03:26;16.50;99.90
16243;DHT22;11719;51.052;6.982;2024-03-17T11:05:52;16.60;99.90
16243;DHT22;11719;51.052;6.982;2024-03-17T11:08:19;16.60;99.90
16243;DHT22;11719;51.052;6.982;2024-03-17T11:10:52;16.70;99.90
16243;DHT22;11719;51.052;6.982;2024-03-17T11:13:32;16.70;99.90
16243;DHT22;11719;51.052;6.982;2024-03-17T11:15:59;16.80;99.90
16243;DHT22;11719;51.052;6.982;2024-03-17T11:18:32;16.80;99.90
16243;DHT22;11719;51.052;6.982;2024-03-17T11:21:03;16.80;99.90
16243;DHT22;11719;51.052;6.982;2024-03-17T11:23:44;16.70;99.90
16243;DHT22;11719;51.052;6.982;2024-03-17T11:26:30;16.60;99.90
16243;DHT22;11719;51.052;6.982;2024-03-17T11:28:58;16.70;99.90
16243;DHT22;11719;51.052;6.982;2024-03-17T11:34:31;16.80;99.90
16243;DHT22;11719;51.052;6.982;2024-03-17T11:37:00;16.90;99.90
16243;DHT22;11719;51.052;6.982;2024-03-17T11:42:21;17.00;99.90
16243;DHT22;11719;51.052;6.982;2024-03-17T11:47:34;17.00;99.90
16243;DHT22;11719;51.052;6.982;2024-03-17T11:50:03;17.00;99.90
16243;DHT22;11719;51.052;6.982;2024-03-17T11:52:30;16.90;99.90
16243;DHT22;11719;51.052;6.982;2024-03-17T11:54:55;16.90;99.90
16243;DHT22;11719;51.052;6.982;2024-03-17T11:57:23;17.00;99.90
16243;DHT22;11719;51.052;6.982;2024-03-17T11:59:50;17.00;99.90
16243;DHT22;11719;51.052;6.982;2024-03-17T12:02:25;17.00;99.90
16243;DHT22;11719;51.052;6.982;2024-03-17T12:04:53;17.00;99.90
16243;DHT22;11719;51.052;6.982;2024-03-17T12:07:25;17.00;99.90
16243;DHT22;11719;51.052;6.982;2024-03-17T12:09:53;17.00;99.90
16243;DHT22;11719;51.052;6.982;2024-03-17T12:12:25;17.00;99.90
16243;DHT22;11719;51.052;6.982;2024-03-17T12:15:01;17.00;99.90
16243;DHT22;11719;51.052;6.982;2024-03-17T12:17:28;16.90;99.90
16243;DHT22;11719;51.052;6.982;2024-03-17T12:19:55;17.00;99.90
16243;DHT22;11719;51.052;6.982;2024-03-17T12:22:24;17.00;99.90
16243;DHT22;11719;51.052;6.982;2024-03-17T12:24:53;17.10;99.90
16243;DHT22;11719;51.052;6.982;2024-03-17T12:27:25;17.10;99.90
16243;DHT22;11719;51.052;6.982;2024-03-17T12:29:53;17.10;99.90
16243;DHT22;11719;51.052;6.982;2024-03-17T12:32:24;17.10;99.90
16243;DHT22;11719;51.052;6.982;2024-03-17T12:34:54;17.10;99.90
16243;DHT22;11719;51.052;6.982;2024-03-17T12:37:23;17.00;99.90
16243;DHT22;11719;51.052;6.982;2024-03-17T12:39:51;17.00;99.90
16243;DHT22;11719;51.052;6.982;2024-03-17T12:42:23;17.10;99.90
16243;DHT22;11719;51.052;6.982;2024-03-17T12:47:30;17.10;99.90
16243;DHT22;11719;51.052;6.982;2024-03-17T12:49:58;17.10;99.90
16243;DHT22;11719;51.052;6.982;2024-03-17T12:52:26;17.10;99.90
16243;DHT22;11719;51.052;6.982;2024-03-17T12:55:00;17.10;99.90
16243;DHT22;11719;51.052;6.982;2024-03-17T12:57:52;17.10;99.90
16243;DHT22;11719;51.052;6.982;2024-03-17T13:01:03;17.20;99.90
16243;DHT22;11719;51.052;6.982;2024-03-17T13:03:32;17.10;99.90
16243;DHT22;11719;51.052;6.982;2024-03-17T13:06:03;17.10;99.90
16243;DHT22;11719;51.052;6.982;2024-03-17T13:08:32;17.10;99.90
16243;DHT22;11719;51.052;6.982;2024-03-17T13:11:01;17.10;99.90
16243;DHT22;11719;51.052;6.982;2024-03-17T13:13:29;17.10;99.90
16243;DHT22;11719;51.052;6.982;2024-03-17T13:15:55;17.10;99.90
16243;DHT22;11719;51.052;6.982;2024-03-17T13:18:21;17.10;99.90
16243;DHT22;11719;51.052;6.982;2024-03-17T13:20:49;17.10;99.90
16243;DHT22;11719;51.052;6.982;2024-03-17T13:23:15;17.10;99.90
16243;DHT22;11719;51.052;6.982;2024-03-17T13:25:44;17.10;99.90
16243;DHT22;11719;51.052;6.982;2024-03-17T13:28:11;17.10;99.90
16243;DHT22;11719;51.052;6.982;2024-03-17T13:30:40;17.10;99.90
16243;DHT22;11719;51.052;6.982;2024-03-17T13:33:07;17.10;99.90
16243;DHT22;11719;51.052;6.982;2024-03-17T13:35:38;17.10;99.90
16243;DHT22;11719;51.052;6.982;2024-03-17T13:38:08;17.10;99.90
16243;DHT22;11719;51.052;6.982;2024-03-17T13:40:37;17.10;99.90
16243;DHT22;11719;51.052;6.982;2024-03-17T13:43:08;17.10;99.90
16243;DHT22;11719;51.052;6.982;2024-03-17T13:45:41;17.10;99.90
16243;DHT22;11719;51.052;6.982;2024-03-17T13:48:13;17.10;99.90
16243;DHT22;11719;51.052;6.982;2024-03-17T13:50:39;17.10;99.90
16243;DHT22;11719;51.052;6.982;2024-03-17T13:53:12;17.10;99.90
16243;DHT22;11719;51.052;6.982;2024-03-17T13:55:38;17.10;99.90
16243;DHT22;11719;51.052;6.982;2024-03-17T13:58:07;17.10;99.90
16243;DHT22;11719;51.052;6.982;2024-03-17T14:00:39;17.10;99.90
16243;DHT22;11719;51.052;6.982;2024-03-17T14:03:09;17.10;99.90
16243;DHT22;11719;51.052;6.982;2024-03-17T14:05:35;17.10;99.90
16243;DHT22;11719;51.052;6.982;2024-03-17T14:08:01;17.10;99.90
16243;DHT22;11719;51.052;6.982;2024-03-17T14:10:30;17.10;99.90
16243;DHT22;11719;51.052;6.982;2024-03-17T14:12:58;17.10;99.90
16243;DHT22;11719;51.052;6.982;2024-03-17T14:15:24;17.10;99.90
16243;DHT22;11719;51.052;6.982;2024-03-17T14:17:53;17.10;99.90
16243;DHT22;11719;51.052;6.982;2024-03-17T14:20:18;17.10;99.90
16243;DHT22;11719;51.052;6.982;2024-03-17T14:22:48;17.00;99.90
16243;DHT22;11719;51.052;6.982;2024-03-17T14:25:18;17.00;99.90
16243;DHT22;11719;51.052;6.982;2024-03-17T14:27:45;17.00;99.90
16243;DHT22;11719;51.052;6.982;2024-03-17T14:30:18;17.00;99.90
16243;DHT22;11719;51.052;6.982;2024-03-17T14:32:50;17.00;99.90
16243;DHT22;11719;51.052;6.982;2024-03-17T14:35:17;17.00;99.90
16243;DHT22;11719;51.052;6.982;2024-03-17T14:37:44;17.00;99.90
16243;DHT22;11719;51.052;6.982;2024-03-17T14:40:14;17.00;99.90
16243;DHT22;11719;51.052;6.982;2024-03-17T14:42:47;17.00;99.90
16243;DHT22;11719;51.052;6.982;2024-03-17T14:45:13;17.00;99.90
16243;DHT22;11719;51.052;6.982;2024-03-17T14:47:47;17.00;99.90
16243;DHT22;11719;51.052;6.982;2024-03-17T14:50:12;17.00;99.90
16243;DHT22;11719;51.052;6.982;2024-03-17T14:52:42;17.10;99.90
16243;DHT22;11719;51.052;6.982;2024-03-17T14:55:09;17.10;99.90
16243;DHT22;11719;51.052;6.982;2024-03-17T14:57:36;17.10;99.90
16243;DHT22;11719;51.052;6.982;2024-03-17T15:00:06;17.10;99.90
16243;DHT22;11719;51.052;6.982;2024-03-17T15:02:42;17.10;99.90
16243;DHT22;11719;51.052;6.982;2024-03-17T15:05:08;17.00;99.90
16243;DHT22;11719;51.052;6.982;2024-03-17T15:07:35;17.10;99.90
16243;DHT22;11719;51.052;6.982;2024-03-17T15:10:01;17.10;99.90
16243;DHT22;11719;51.052;6.982;2024-03-17T15:12:29;17.10;99.90
16243;DHT22;11719;51.052;6.982;2024-03-17T15:14:54;17.10;99.90
16243;DHT22;11719;51.052;6.982;2024-03-17T15:17:20;17.10;99.90
16243;DHT22;11719;51.052;6.982;2024-03-17T15:19:52;17.10;99.90
16243;DHT22;11719;51.052;6.982;2024-03-17T15:22:21;17.10;99.90
16243;DHT22;11719;51.052;6.982;2024-03-17T15:24:48;17.10;99.90
16243;DHT22;11719;51.052;6.982;2024-03-17T15:27:14;17.10;99.90
16243;DHT22;11719;51.052;6.982;2024-03-17T15:29:40;17.10;99.90
16243;DHT22;11719;51.052;6.982;2024-03-17T15:32:09;17.20;99.90
16243;DHT22;11719;51.052;6.982;2024-03-17T15:34:36;17.20;99.90
16243;DHT22;11719;51.052;6.982;2024-03-17T15:37:03;17.20;99.90
16243;DHT22;11719;51.052;6.982;2024-03-17T15:39:29;17.20;99.90
16243;DHT22;11719;51.052;6.982;2024-03-17T15:41:55;17.20;99.90
16243;DHT22;11719;51.052;6.982;2024-03-17T15:44:21;17.20;99.90
16243;DHT22;11719;51.052;6.982;2024-03-17T15:46:47;17.20;99.90
16243;DHT22;11719;51.052;6.982;2024-03-17T15:49:16;17.20;99.90
16243;DHT22;11719;51.052;6.982;2024-03-17T15:51:44;17.20;99.90
16243;DHT22;11719;51.052;6.982;2024-03-17T15:54:09;17.20;99.90
16243;DHT22;11719;51.052;6.982;2024-03-17T15:56:35;17.20;99.90
16243;DHT22;11719;51.052;6.982;2024-03-17T15:59:01;17.30;99.90